sensor_id;sensor_type;location;lat;lon;timestamp;temperature;humidity
20566;DHT22;10441;50.884;12.064;2023-01-24T00:00:42;1.00;99.90
20566;DHT22;10441;50.884;12.064;2023-01-24T00:03:10;1.10;99.90
20566;DHT22;10441;50.884;12.064;2023-01-24T00:05:37;1.00;99.90
20566;DHT22;10441;50.884;12.064;2023-01-24T00:08:08;1.00;99.90
20566;DHT22;10441;50.884;12.064;2023-01-24T00:10:38;1.00;99.90
20566;DHT22;10441;50.884;12.064;2023-01-24T00:13:06;1.00;99.90
20566;DHT22;10441;50.884;12.064;2023-01-24T00:15:34;1.00;99.90
20566;DHT22;10441;50.884;12.064;2023-01-24T00:18:02;1.00;99.90
20566;DHT22;10441;50.884;12.064;2023-01-24T00:20:30;1.00;99.90
20566;DHT22;10441;50.884;12.064;2023-01-24T00:22:57;1.00;99.90
20566;DHT22;10441;50.884;12.064;2023-01-24T00:25:23;1.00;99.90
20566;DHT22;10441;50.884;12.064;2023-01-24T00:27:53;1.00;99.90
20566;DHT22;10441;50.884;12.064;2023-01-24T00:30:22;1.00;99.90
20566;DHT22;10441;50.884;12.064;2023-01-24T00:32:50;1.00;99.90
20566;DHT22;10441;50.884;12.064;2023-01-24T00:35:17;1.00;99.90
20566;DHT22;10441;50.884;12.064;2023-01-24T00:37:45;1.00;99.90
20566;DHT22;10441;50.884;12.064;2023-01-24T00:40:11;1.00;99.90
20566;DHT22;10441;50.884;12.064;2023-01-24T00:42:39;1.00;99.90
20566;DHT22;10441;50.884;12.064;2023-01-24T00:45:13;1.00;99.90
20566;DHT22;10441;50.884;12.064;2023-01-24T00:47:41;1.00;99.90
20566;DHT22;10441;50.884;12.064;2023-01-24T00:50:09;1.00;99.90
20566;DHT22;10441;50.884;12.064;2023-01-24T00:52:37;1.00;99.90
20566;DHT22;10441;50.884;12.064;2023-01-24T00:55:07;1.10;99.90
20566;DHT22;10441;50.884;12.064;2023-01-24T00:57:35;1.00;99.90
20566;DHT22;10441;50.884;12.064;2023-01-24T01:00:03;1.00;99.90
20566;DHT22;10441;50.884;12.064;2023-01-24T01:02:33;1.10;99.90
20566;DHT22;10441;50.884;12.064;2023-01-24T01:05:00;1.10;99.90
20566;DHT22;10441;50.884;12.064;2023-01-24T01:07:28;1.10;99.90
20566;DHT22;10441;50.884;12.064;2023-01-24T01:09:56;1.10;99.90
20566;DHT22;10441;50.884;12.064;2023-01-24T01:12:25;1.10;99.90
20566;DHT22;10441;50.884;12.064;2023-01-24T01:14:53;1.00;99.90
20566;DHT22;10441;50.884;12.064;2023-01-24T01:17:24;1.10;99.90
20566;DHT22;10441;50.884;12.064;2023-01-24T01:19:53;1.10;99.90
20566;DHT22;10441;50.884;12.064;2023-01-24T01:22:24;1.10;99.90
20566;DHT22;10441;50.884;12.064;2023-01-24T01:24:54;1.10;99.90
20566;DHT22;10441;50.884;12.064;2023-01-24T01:27:21;1.10;99.90
20566;DHT22;10441;50.884;12.064;2023-01-24T01:29:47;1.10;99.90
20566;DHT22;10441;50.884;12.064;2023-01-24T01:32:16;1.00;99.90
20566;DHT22;10441;50.884;12.064;2023-01-24T01:34:44;1.10;99.90
20566;DHT22;10441;50.884;12.064;2023-01-24T01:37:13;1.10;99.90
20566;DHT22;10441;50.884;12.064;2023-01-24T01:39:42;1.10;99.90
20566;DHT22;10441;50.884;12.064;2023-01-24T01:42:09;1.10;99.90
20566;DHT22;10441;50.884;12.064;2023-01-24T01:44:38;1.10;99.90
20566;DHT22;10441;50.884;12.064;2023-01-24T01:47:06;1.10;99.90
20566;DHT22;10441;50.884;12.064;2023-01-24T01:49:38;1.20;99.90
20566;DHT22;10441;50.884;12.064;2023-01-24T01:52:06;1.10;99.90
20566;DHT22;10441;50.884;12.064;2023-01-24T01:54:42;1.10;99.90
20566;DHT22;10441;50.884;12.064;2023-01-24T01:57:12;1.10;99.90
20566;DHT22;10441;50.884;12.064;2023-01-24T01:59:41;1.20;99.90
20566;DHT22;10441;50.884;12.064;2023-01-24T02:02:11;1.10;99.90
20566;DHT22;10441;50.884;12.064;2023-01-24T02:04:40;1.20;99.90
20566;DHT22;10441;50.884;12.064;2023-01-24T02:07:11;1.10;99.90
20566;DHT22;10441;50.884;12.064;2023-01-24T02:09:42;1.10;99.90
20566;DHT22;10441;50.884;12.064;2023-01-24T02:12:10;1.10;99.90
20566;DHT22;10441;50.884;12.064;2023-01-24T02:14:37;1.10;99.90
20566;DHT22;10441;50.884;12.064;2023-01-24T02:17:25;1.20;99.90
20566;DHT22;10441;50.884;12.064;2023-01-24T02:20:16;1.20;99.90
20566;DHT22;10441;50.884;12.064;2023-01-24T02:22:50;1.30;99.90
20566;DHT22;10441;50.884;12.064;2023-01-24T02:25:21;1.20;99.90
20566;DHT22;10441;50.884;12.064;2023-01-24T02:27:52;1.30;99.90
20566;DHT22;10441;50.884;12.064;2023-01-24T02:30:20;1.20;99.90
20566;DHT22;10441;50.884;12.064;2023-01-24T02:32:48;1.20;99.90
20566;DHT22;10441;50.884;12.064;2023-01-24T02:35:23;1.10;99.90
20566;DHT22;10441;50.884;12.064;2023-01-24T02:37:54;1.10;99.90
20566;DHT22;10441;50.884;12.064;2023-01-24T02:40:24;1.20;99.90
20566;DHT22;10441;50.884;12.064;2023-01-24T02:42:58;1.20;99.90
20566;DHT22;10441;50.884;12.064;2023-01-24T02:45:30;1.20;99.90
20566;DHT22;10441;50.884;12.064;2023-01-24T02:47:57;1.20;99.90
20566;DHT22;10441;50.884;12.064;2023-01-24T02:50:26;1.20;99.90
20566;DHT22;10441;50.884;12.064;2023-01-24T02:52:54;1.20;99.90
20566;DHT22;10441;50.884;12.064;2023-01-24T02:55:40;1.20;99.90
20566;DHT22;10441;50.884;12.064;2023-01-24T02:58:22;1.30;99.90
20566;DHT22;10441;50.884;12.064;2023-01-24T03:00:50;1.20;99.90
20566;DHT22;10441;50.884;12.064;2023-01-24T03:03:18;1.20;99.90
20566;DHT22;10441;50.884;12.064;2023-01-24T03:05:45;1.20;99.90
20566;DHT22;10441;50.884;12.064;2023-01-24T03:08:22;1.30;99.90
20566;DHT22;10441;50.884;12.064;2023-01-24T03:10:53;1.20;99.90
20566;DHT22;10441;50.884;12.064;2023-01-24T03:13:24;1.20;99.90
20566;DHT22;10441;50.884;12.064;2023-01-24T03:16:10;1.20;99.90
20566;DHT22;10441;50.884;12.064;2023-01-24T03:18:56;1.20;99.90
20566;DHT22;10441;50.884;12.064;2023-01-24T03:21:42;1.20;99.90
20566;DHT22;10441;50.884;12.064;2023-01-24T03:24:27;1.20;99.90
20566;DHT22;10441;50.884;12.064;2023-01-24T03:27:13;1.20;99.90
20566;DHT22;10441;50.884;12.064;2023-01-24T03:30:00;1.20;99.90
20566;DHT22;10441;50.884;12.064;2023-01-24T03:32:46;1.20;99.90
20566;DHT22;10441;50.884;12.064;2023-01-24T03:35:31;1.20;99.90
20566;DHT22;10441;50.884;12.064;2023-01-24T03:37:58;1.10;99.90
20566;DHT22;10441;50.884;12.064;2023-01-24T03:40:44;1.10;99.90
20566;DHT22;10441;50.884;12.064;2023-01-24T03:43:12;1.20;99.90
20566;DHT22;10441;50.884;12.064;2023-01-24T03:45:41;1.10;99.90
20566;DHT22;10441;50.884;12.064;2023-01-24T03:48:10;1.20;99.90
20566;DHT22;10441;50.884;12.064;2023-01-24T03:50:41;1.20;99.90
20566;DHT22;10441;50.884;12.064;2023-01-24T03:53:27;1.30;99.90
20566;DHT22;10441;50.884;12.064;2023-01-24T03:55:56;1.20;99.90
20566;DHT22;10441;50.884;12.064;2023-01-24T03:58:25;1.20;99.90
20566;DHT22;10441;50.884;12.064;2023-01-24T04:00:58;1.20;99.90
20566;DHT22;10441;50.884;12.064;2023-01-24T04:03:26;1.20;99.90
20566;DHT22;10441;50.884;12.064;2023-01-24T04:05:54;1.20;99.90
20566;DHT22;10441;50.884;12.064;2023-01-24T04:08:22;1.30;99.90
20566;DHT22;10441;50.884;12.064;2023-01-24T04:10:50;1.30;99.90
20566;DHT22;10441;50.884;12.064;2023-01-24T04:13:18;1.10;99.90
20566;DHT22;10441;50.884;12.064;2023-01-24T04:15:46;1.10;99.90
20566;DHT22;10441;50.884;12.064;2023-01-24T04:18:16;1.10;99.90
20566;DHT22;10441;50.884;12.064;2023-01-24T04:20:44;1.10;99.90
20566;DHT22;10441;50.884;12.064;2023-01-24T04:23:12;1.10;99.90
20566;DHT22;10441;50.884;12.064;2023-01-24T04:25:38;1.20;99.90
20566;DHT22;10441;50.884;12.064;2023-01-24T04:28:07;1.20;99.90
20566;DHT22;10441;50.884;12.064;2023-01-24T04:30:37;1.20;99.90
20566;DHT22;10441;50.884;12.064;2023-01-24T04:33:08;1.20;99.90
20566;DHT22;10441;50.884;12.064;2023-01-24T04:35:41;1.10;99.90
20566;DHT22;10441;50.884;12.064;2023-01-24T04:38:08;1.10;99.90
20566;DHT22;10441;50.884;12.064;2023-01-24T04:40:36;1.10;99.90
20566;DHT22;10441;50.884;12.064;2023-01-24T04:43:03;1.10;99.90
20566;DHT22;10441;50.884;12.064;2023-01-24T04:45:31;1.10;99.90
20566;DHT22;10441;50.884;12.064;2023-01-24T04:48:00;1.10;99.90
20566;DHT22;10441;50.884;12.064;2023-01-24T04:50:27;1.10;99.90
20566;DHT22;10441;50.884;12.064;2023-01-24T04:52:57;1.10;99.90
20566;DHT22;10441;50.884;12.064;2023-01-24T04:55:24;1.10;99.90
20566;DHT22;10441;50.884;12.064;2023-01-24T04:57:52;1.10;99.90
20566;DHT22;10441;50.884;12.064;2023-01-24T05:00:19;1.10;99.90
20566;DHT22;10441;50.884;12.064;2023-01-24T05:02:47;1.10;99.90
20566;DHT22;10441;50.884;12.064;2023-01-24T05:05:17;1.10;99.90
20566;DHT22;10441;50.884;12.064;2023-01-24T05:07:46;1.10;99.90
20566;DHT22;10441;50.884;12.064;2023-01-24T05:10:16;1.10;99.90
20566;DHT22;10441;50.884;12.064;2023-01-24T05:12:43;1.00;99.90
20566;DHT22;10441;50.884;12.064;2023-01-24T05:15:10;1.10;99.90
20566;DHT22;10441;50.884;12.064;2023-01-24T05:17:40;1.00;99.90
20566;DHT22;10441;50.884;12.064;2023-01-24T05:20:10;1.10;99.90
20566;DHT22;10441;50.884;12.064;2023-01-24T05:22:37;1.10;99.90
20566;DHT22;10441;50.884;12.064;2023-01-24T05:25:07;1.10;99.90
20566;DHT22;10441;50.884;12.064;2023-01-24T05:27:42;1.00;99.90
20566;DHT22;10441;50.884;12.064;2023-01-24T05:30:10;1.10;99.90
20566;DHT22;10441;50.884;12.064;2023-01-24T05:32:36;1.10;99.90
20566;DHT22;10441;50.884;12.064;2023-01-24T05:35:07;1.10;99.90
20566;DHT22;10441;50.884;12.064;2023-01-24T05:37:38;1.00;99.90
20566;DHT22;10441;50.884;12.064;2023-01-24T05:40:07;1.80;99.90
20566;DHT22;10441;50.884;12.064;2023-01-24T05:42:42;1.10;99.90
20566;DHT22;10441;50.884;12.064;2023-01-24T05:45:10;1.10;99.90
20566;DHT22;10441;50.884;12.064;2023-01-24T05:47:37;1.00;99.90
20566;DHT22;10441;50.884;12.064;2023-01-24T05:50:08;1.00;99.90
20566;DHT22;10441;50.884;12.064;2023-01-24T05:52:37;1.10;99.90
20566;DHT22;10441;50.884;12.064;2023-01-24T05:55:07;1.00;99.90
20566;DHT22;10441;50.884;12.064;2023-01-24T05:57:37;1.00;99.90
20566;DHT22;10441;50.884;12.064;2023-01-24T06:00:10;1.00;99.90
20566;DHT22;10441;50.884;12.064;2023-01-24T06:02:38;1.00;99.90
20566;DHT22;10441;50.884;12.064;2023-01-24T06:05:06;1.00;99.90
20566;DHT22;10441;50.884;12.064;2023-01-24T06:07:35;1.00;99.90
20566;DHT22;10441;50.884;12.064;2023-01-24T06:10:03;1.00;99.90
20566;DHT22;10441;50.884;12.064;2023-01-24T06:12:30;1.00;99.90
20566;DHT22;10441;50.884;12.064;2023-01-24T06:14:59;1.10;99.90
20566;DHT22;10441;50.884;12.064;2023-01-24T06:17:27;1.20;99.90
20566;DHT22;10441;50.884;12.064;2023-01-24T06:19:54;1.10;99.90
20566;DHT22;10441;50.884;12.064;2023-01-24T06:22:25;1.00;99.90
20566;DHT22;10441;50.884;12.064;2023-01-24T06:24:56;1.00;99.90
20566;DHT22;10441;50.884;12.064;2023-01-24T06:27:24;1.00;99.90
20566;DHT22;10441;50.884;12.064;2023-01-24T06:29:53;1.10;99.90
20566;DHT22;10441;50.884;12.064;2023-01-24T06:32:28;1.10;99.90
20566;DHT22;10441;50.884;12.064;2023-01-24T06:35:07;1.20;99.90
20566;DHT22;10441;50.884;12.064;2023-01-24T06:37:42;1.10;99.90
20566;DHT22;10441;50.884;12.064;2023-01-24T06:40:12;1.00;99.90
20566;DHT22;10441;50.884;12.064;2023-01-24T06:42:42;1.10;99.90
20566;DHT22;10441;50.884;12.064;2023-01-24T06:45:11;1.10;99.90
20566;DHT22;10441;50.884;12.064;2023-01-24T06:47:41;1.10;99.90
20566;DHT22;10441;50.884;12.064;2023-01-24T06:50:12;1.20;99.90
20566;DHT22;10441;50.884;12.064;2023-01-24T06:52:41;1.10;99.90
20566;DHT22;10441;50.884;12.064;2023-01-24T06:55:09;1.10;99.90
20566;DHT22;10441;50.884;12.064;2023-01-24T06:57:38;1.00;99.90
20566;DHT22;10441;50.884;12.064;2023-01-24T07:00:08;1.00;99.90
20566;DHT22;10441;50.884;12.064;2023-01-24T07:02:36;1.10;99.90
20566;DHT22;10441;50.884;12.064;2023-01-24T07:05:06;1.10;99.90
20566;DHT22;10441;50.884;12.064;2023-01-24T07:07:32;1.10;99.90
20566;DHT22;10441;50.884;12.064;2023-01-24T07:09:59;1.10;99.90
20566;DHT22;10441;50.884;12.064;2023-01-24T07:12:27;1.10;99.90
20566;DHT22;10441;50.884;12.064;2023-01-24T07:14:57;1.20;99.90
20566;DHT22;10441;50.884;12.064;2023-01-24T07:17:25;1.20;99.90
20566;DHT22;10441;50.884;12.064;2023-01-24T07:19:53;1.10;99.90
20566;DHT22;10441;50.884;12.064;2023-01-24T07:22:23;1.20;99.90
20566;DHT22;10441;50.884;12.064;2023-01-24T07:24:54;1.20;99.90
20566;DHT22;10441;50.884;12.064;2023-01-24T07:27:24;1.30;99.90
20566;DHT22;10441;50.884;12.064;2023-01-24T07:29:53;1.20;99.90
20566;DHT22;10441;50.884;12.064;2023-01-24T07:32:24;1.40;99.90
20566;DHT22;10441;50.884;12.064;2023-01-24T07:34:54;1.40;99.90
20566;DHT22;10441;50.884;12.064;2023-01-24T07:37:24;1.30;99.90
20566;DHT22;10441;50.884;12.064;2023-01-24T07:39:53;1.30;99.90
20566;DHT22;10441;50.884;12.064;2023-01-24T07:42:24;1.40;99.90
20566;DHT22;10441;50.884;12.064;2023-01-24T07:44:54;1.30;99.90
20566;DHT22;10441;50.884;12.064;2023-01-24T07:47:23;1.30;99.90
20566;DHT22;10441;50.884;12.064;2023-01-24T07:49:53;1.30;99.90
20566;DHT22;10441;50.884;12.064;2023-01-24T07:52:19;1.40;99.90
20566;DHT22;10441;50.884;12.064;2023-01-24T07:54:49;1.40;99.90
20566;DHT22;10441;50.884;12.064;2023-01-24T07:57:15;1.30;99.90
20566;DHT22;10441;50.884;12.064;2023-01-24T07:59:43;1.30;99.90
20566;DHT22;10441;50.884;12.064;2023-01-24T08:02:11;1.40;99.90
20566;DHT22;10441;50.884;12.064;2023-01-24T08:04:39;1.30;99.90
20566;DHT22;10441;50.884;12.064;2023-01-24T08:07:07;1.50;99.90
20566;DHT22;10441;50.884;12.064;2023-01-24T08:09:46;1.40;99.90
20566;DHT22;10441;50.884;12.064;2023-01-24T08:12:15;1.50;99.90
20566;DHT22;10441;50.884;12.064;2023-01-24T08:14:43;1.50;99.90
20566;DHT22;10441;50.884;12.064;2023-01-24T08:17:11;1.50;99.90
20566;DHT22;10441;50.884;12.064;2023-01-24T08:19:39;1.40;99.90
20566;DHT22;10441;50.884;12.064;2023-01-24T08:22:07;1.50;99.90
20566;DHT22;10441;50.884;12.064;2023-01-24T08:24:36;1.40;99.90
20566;DHT22;10441;50.884;12.064;2023-01-24T08:27:03;1.40;99.90
20566;DHT22;10441;50.884;12.064;2023-01-24T08:29:33;1.30;99.90
20566;DHT22;10441;50.884;12.064;2023-01-24T08:32:01;1.40;99.90
20566;DHT22;10441;50.884;12.064;2023-01-24T08:34:29;1.30;99.90
20566;DHT22;10441;50.884;12.064;2023-01-24T08:36:57;1.30;99.90
20566;DHT22;10441;50.884;12.064;2023-01-24T08:39:24;1.20;99.90
20566;DHT22;10441;50.884;12.064;2023-01-24T08:41:52;1.20;99.90
20566;DHT22;10441;50.884;12.064;2023-01-24T08:44:19;1.20;99.90
20566;DHT22;10441;50.884;12.064;2023-01-24T08:46:47;1.20;99.90
20566;DHT22;10441;50.884;12.064;2023-01-24T08:49:15;1.10;99.90
20566;DHT22;10441;50.884;12.064;2023-01-24T08:51:43;1.10;99.90
20566;DHT22;10441;50.884;12.064;2023-01-24T08:54:13;1.20;99.90
20566;DHT22;10441;50.884;12.064;2023-01-24T08:56:41;1.20;99.90
20566;DHT22;10441;50.884;12.064;2023-01-24T08:59:09;1.10;99.90
20566;DHT22;10441;50.884;12.064;2023-01-24T09:01:37;1.20;99.90
20566;DHT22;10441;50.884;12.064;2023-01-24T09:04:11;1.30;99.90
20566;DHT22;10441;50.884;12.064;2023-01-24T09:06:39;1.20;99.90
20566;DHT22;10441;50.884;12.064;2023-01-24T09:09:07;1.20;99.90
20566;DHT22;10441;50.884;12.064;2023-01-24T09:11:36;1.20;99.90
20566;DHT22;10441;50.884;12.064;2023-01-24T09:14:04;1.20;99.90
20566;DHT22;10441;50.884;12.064;2023-01-24T09:16:30;1.20;99.90
20566;DHT22;10441;50.884;12.064;2023-01-24T09:18:58;1.20;99.90
20566;DHT22;10441;50.884;12.064;2023-01-24T09:21:28;1.20;99.90
20566;DHT22;10441;50.884;12.064;2023-01-24T09:23:56;1.20;99.90
20566;DHT22;10441;50.884;12.064;2023-01-24T09:26:23;1.10;99.90
20566;DHT22;10441;50.884;12.064;2023-01-24T09:28:51;1.20;99.90
20566;DHT22;10441;50.884;12.064;2023-01-24T09:31:17;1.20;99.90
20566;DHT22;10441;50.884;12.064;2023-01-24T09:33:46;1.20;99.90
20566;DHT22;10441;50.884;12.064;2023-01-24T09:36:13;1.30;99.90
20566;DHT22;10441;50.884;12.064;2023-01-24T09:38:43;1.20;99.90
20566;DHT22;10441;50.884;12.064;2023-01-24T09:41:15;1.10;99.90
20566;DHT22;10441;50.884;12.064;2023-01-24T09:43:45;1.10;99.90
20566;DHT22;10441;50.884;12.064;2023-01-24T09:46:18;1.20;99.90
20566;DHT22;10441;50.884;12.064;2023-01-24T09:48:47;1.20;99.90
20566;DHT22;10441;50.884;12.064;2023-01-24T09:51:21;1.30;99.90
20566;DHT22;10441;50.884;12.064;2023-01-24T09:53:53;1.20;99.90
20566;DHT22;10441;50.884;12.064;2023-01-24T09:56:24;1.30;99.90
20566;DHT22;10441;50.884;12.064;2023-01-24T09:59:12;1.30;99.90
20566;DHT22;10441;50.884;12.064;2023-01-24T10:01:42;1.30;99.90
20566;DHT22;10441;50.884;12.064;2023-01-24T10:04:13;1.30;99.90
20566;DHT22;10441;50.884;12.064;2023-01-24T10:06:43;1.50;99.90
20566;DHT22;10441;50.884;12.064;2023-01-24T10:09:19;1.40;99.90
20566;DHT22;10441;50.884;12.064;2023-01-24T10:11:51;1.40;99.90
20566;DHT22;10441;50.884;12.064;2023-01-24T10:17:20;1.40;99.90
20566;DHT22;10441;50.884;12.064;2023-01-24T10:19:54;1.50;99.90
20566;DHT22;10441;50.884;12.064;2023-01-24T10:22:41;1.40;99.90
20566;DHT22;10441;50.884;12.064;2023-01-24T10:25:16;1.50;99.90
20566;DHT22;10441;50.884;12.064;2023-01-24T10:27:46;1.50;99.90
20566;DHT22;10441;50.884;12.064;2023-01-24T10:30:16;1.40;99.90
20566;DHT22;10441;50.884;12.064;2023-01-24T10:32:46;1.50;99.90
20566;DHT22;10441;50.884;12.064;2023-01-24T10:35:16;1.40;99.90
20566;DHT22;10441;50.884;12.064;2023-01-24T10:37:45;1.30;99.90
20566;DHT22;10441;50.884;12.064;2023-01-24T10:40:17;1.40;99.90
20566;DHT22;10441;50.884;12.064;2023-01-24T10:42:45;1.30;99.90
20566;DHT22;10441;50.884;12.064;2023-01-24T10:47:59;1.40;99.90
20566;DHT22;10441;50.884;12.064;2023-01-24T10:50:32;1.40;99.90
20566;DHT22;10441;50.884;12.064;2023-01-24T10:53:10;1.40;99.90
20566;DHT22;10441;50.884;12.064;2023-01-24T10:55:41;1.40;99.90
20566;DHT22;10441;50.884;12.064;2023-01-24T10:58:19;1.50;99.90
20566;DHT22;10441;50.884;12.064;2023-01-24T11:00:47;1.60;99.90
20566;DHT22;10441;50.884;12.064;2023-01-24T11:03:22;1.40;99.90
20566;DHT22;10441;50.884;12.064;2023-01-24T11:05:51;1.40;99.90
20566;DHT22;10441;50.884;12.064;2023-01-24T11:08:20;1.50;99.90
20566;DHT22;10441;50.884;12.064;2023-01-24T11:10:51;1.30;99.90
20566;DHT22;10441;50.884;12.064;2023-01-24T11:13:26;1.30;99.90
20566;DHT22;10441;50.884;12.064;2023-01-24T11:15:59;1.40;99.90
20566;DHT22;10441;50.884;12.064;2023-01-24T11:18:29;1.50;99.90
20566;DHT22;10441;50.884;12.064;2023-01-24T11:21:08;1.40;99.90
20566;DHT22;10441;50.884;12.064;2023-01-24T11:23:37;1.40;99.90
20566;DHT22;10441;50.884;12.064;2023-01-24T11:26:18;1.40;99.90
20566;DHT22;10441;50.884;12.064;2023-01-24T11:28:54;1.40;99.90
20566;DHT22;10441;50.884;12.064;2023-01-24T11:31:22;1.50;99.90
20566;DHT22;10441;50.884;12.064;2023-01-24T11:34:10;1.40;99.90
20566;DHT22;10441;50.884;12.064;2023-01-24T11:36:59;1.40;99.90
20566;DHT22;10441;50.884;12.064;2023-01-24T11:39:34;1.30;99.90
20566;DHT22;10441;50.884;12.064;2023-01-24T11:42:06;1.30;99.90
20566;DHT22;10441;50.884;12.064;2023-01-24T11:47:24;1.40;99.90
20566;DHT22;10441;50.884;12.064;2023-01-24T11:50:08;1.30;99.90
20566;DHT22;10441;50.884;12.064;2023-01-24T11:52:47;1.50;99.90
20566;DHT22;10441;50.884;12.064;2023-01-24T11:55:17;1.30;99.90
20566;DHT22;10441;50.884;12.064;2023-01-24T11:57:55;1.40;99.90
20566;DHT22;10441;50.884;12.064;2023-01-24T12:00:27;1.40;99.90
20566;DHT22;10441;50.884;12.064;2023-01-24T12:05:59;1.40;99.90
20566;DHT22;10441;50.884;12.064;2023-01-24T12:08:31;1.30;99.90
20566;DHT22;10441;50.884;12.064;2023-01-24T12:11:08;1.40;99.90
20566;DHT22;10441;50.884;12.064;2023-01-24T12:13:44;1.40;99.90
20566;DHT22;10441;50.884;12.064;2023-01-24T12:16:17;1.50;99.90
20566;DHT22;10441;50.884;12.064;2023-01-24T12:18:51;1.50;99.90
20566;DHT22;10441;50.884;12.064;2023-01-24T12:21:23;1.50;99.90
20566;DHT22;10441;50.884;12.064;2023-01-24T12:23:54;1.50;99.90
20566;DHT22;10441;50.884;12.064;2023-01-24T12:26:24;1.30;99.90
20566;DHT22;10441;50.884;12.064;2023-01-24T12:29:02;1.30;99.90
20566;DHT22;10441;50.884;12.064;2023-01-24T12:31:32;1.30;99.90
20566;DHT22;10441;50.884;12.064;2023-01-24T12:34:01;1.30;99.90
20566;DHT22;10441;50.884;12.064;2023-01-24T12:36:35;1.60;99.90
20566;DHT22;10441;50.884;12.064;2023-01-24T12:39:11;1.30;99.90
20566;DHT22;10441;50.884;12.064;2023-01-24T12:41:39;1.30;99.90
20566;DHT22;10441;50.884;12.064;2023-01-24T12:44:18;1.40;99.90
20566;DHT22;10441;50.884;12.064;2023-01-24T12:46:56;1.30;99.90
20566;DHT22;10441;50.884;12.064;2023-01-24T12:49:27;1.60;99.90
20566;DHT22;10441;50.884;12.064;2023-01-24T12:51:58;1.40;99.90
20566;DHT22;10441;50.884;12.064;2023-01-24T12:54:30;1.30;99.90
20566;DHT22;10441;50.884;12.064;2023-01-24T12:57:02;1.40;99.90
20566;DHT22;10441;50.884;12.064;2023-01-24T12:59:33;1.30;99.90
20566;DHT22;10441;50.884;12.064;2023-01-24T13:02:10;1.30;99.90
20566;DHT22;10441;50.884;12.064;2023-01-24T13:04:47;1.30;99.90
20566;DHT22;10441;50.884;12.064;2023-01-24T13:07:19;1.30;99.90
20566;DHT22;10441;50.884;12.064;2023-01-24T13:09:52;1.30;99.90
20566;DHT22;10441;50.884;12.064;2023-01-24T13:12:24;1.30;99.90
20566;DHT22;10441;50.884;12.064;2023-01-24T13:14:58;1.20;99.90
20566;DHT22;10441;50.884;12.064;2023-01-24T13:17:38;1.30;99.90
20566;DHT22;10441;50.884;12.064;2023-01-24T13:23:04;1.20;99.90
20566;DHT22;10441;50.884;12.064;2023-01-24T13:25:37;1.30;99.90
20566;DHT22;10441;50.884;12.064;2023-01-24T13:28:08;1.30;99.90
20566;DHT22;10441;50.884;12.064;2023-01-24T13:30:43;1.20;99.90
20566;DHT22;10441;50.884;12.064;2023-01-24T13:33:15;1.20;99.90
20566;DHT22;10441;50.884;12.064;2023-01-24T13:35:48;1.20;99.90
20566;DHT22;10441;50.884;12.064;2023-01-24T13:38:16;1.20;99.90
20566;DHT22;10441;50.884;12.064;2023-01-24T13:40:56;1.20;99.90
20566;DHT22;10441;50.884;12.064;2023-01-24T13:46:13;1.30;99.90
20566;DHT22;10441;50.884;12.064;2023-01-24T13:48:44;1.30;99.90
20566;DHT22;10441;50.884;12.064;2023-01-24T13:54:16;1.20;99.90
20566;DHT22;10441;50.884;12.064;2023-01-24T13:59:28;1.20;99.90
20566;DHT22;10441;50.884;12.064;2023-01-24T14:01:58;1.30;99.90
20566;DHT22;10441;50.884;12.064;2023-01-24T14:04:34;1.20;99.90
20566;DHT22;10441;50.884;12.064;2023-01-24T14:07:17;1.30;99.90
20566;DHT22;10441;50.884;12.064;2023-01-24T14:09:45;1.30;99.90
20566;DHT22;10441;50.884;12.064;2023-01-24T14:12:14;1.30;99.90
20566;DHT22;10441;50.884;12.064;2023-01-24T14:15:02;1.30;99.90
20566;DHT22;10441;50.884;12.064;2023-01-24T14:20:36;1.30;99.90
20566;DHT22;10441;50.884;12.064;2023-01-24T14:23:12;1.20;99.90
20566;DHT22;10441;50.884;12.064;2023-01-24T14:25:41;1.40;99.90
20566;DHT22;10441;50.884;12.064;2023-01-24T14:30:58;1.40;99.90
20566;DHT22;10441;50.884;12.064;2023-01-24T14:36:16;1.20;99.90
20566;DHT22;10441;50.884;12.064;2023-01-24T14:38:47;1.20;99.90
20566;DHT22;10441;50.884;12.064;2023-01-24T14:41:18;1.30;99.90
20566;DHT22;10441;50.884;12.064;2023-01-24T14:43:47;1.40;99.90
20566;DHT22;10441;50.884;12.064;2023-01-24T14:46:18;1.50;99.90
20566;DHT22;10441;50.884;12.064;2023-01-24T14:48:46;1.40;99.90
20566;DHT22;10441;50.884;12.064;2023-01-24T14:51:17;1.30;99.90
20566;DHT22;10441;50.884;12.064;2023-01-24T14:53:49;1.30;99.90
20566;DHT22;10441;50.884;12.064;2023-01-24T14:56:18;1.50;99.90
20566;DHT22;10441;50.884;12.064;2023-01-24T14:58:49;1.20;99.90
20566;DHT22;10441;50.884;12.064;2023-01-24T15:01:25;1.20;99.90
20566;DHT22;10441;50.884;12.064;2023-01-24T15:03:52;1.20;99.90
20566;DHT22;10441;50.884;12.064;2023-01-24T15:06:26;1.30;99.90
20566;DHT22;10441;50.884;12.064;2023-01-24T15:08:55;1.30;99.90
20566;DHT22;10441;50.884;12.064;2023-01-24T15:11:33;1.30;99.90
20566;DHT22;10441;50.884;12.064;2023-01-24T15:14:02;1.20;99.90
20566;DHT22;10441;50.884;12.064;2023-01-24T15:16:31;1.20;99.90
20566;DHT22;10441;50.884;12.064;2023-01-24T15:19:02;1.20;99.90
20566;DHT22;10441;50.884;12.064;2023-01-24T15:21:33;1.20;99.90
20566;DHT22;10441;50.884;12.064;2023-01-24T15:24:02;1.30;99.90
20566;DHT22;10441;50.884;12.064;2023-01-24T15:26:36;1.10;99.90
20566;DHT22;10441;50.884;12.064;2023-01-24T15:31:54;1.20;99.90
20566;DHT22;10441;50.884;12.064;2023-01-24T15:34:23;1.00;99.90
20566;DHT22;10441;50.884;12.064;2023-01-24T15:37:03;1.10;99.90
20566;DHT22;10441;50.884;12.064;2023-01-24T15:39:31;1.10;99.90
20566;DHT22;10441;50.884;12.064;2023-01-24T15:41:59;1.10;99.90
20566;DHT22;10441;50.884;12.064;2023-01-24T15:44:45;1.00;99.90
20566;DHT22;10441;50.884;12.064;2023-01-24T15:47:17;1.10;99.90
20566;DHT22;10441;50.884;12.064;2023-01-24T15:50:14;1.10;99.90
20566;DHT22;10441;50.884;12.064;2023-01-24T15:53:21;1.20;99.90
20566;DHT22;10441;50.884;12.064;2023-01-24T15:55:50;1.10;99.90
20566;DHT22;10441;50.884;12.064;2023-01-24T15:58:18;1.10;99.90
20566;DHT22;10441;50.884;12.064;2023-01-24T16:00:53;1.20;99.90
20566;DHT22;10441;50.884;12.064;2023-01-24T16:03:22;1.20;99.90
20566;DHT22;10441;50.884;12.064;2023-01-24T16:05:50;1.10;99.90
20566;DHT22;10441;50.884;12.064;2023-01-24T16:08:17;1.20;99.90
20566;DHT22;10441;50.884;12.064;2023-01-24T16:10:46;1.20;99.90
20566;DHT22;10441;50.884;12.064;2023-01-24T16:13:21;1.10;99.90
20566;DHT22;10441;50.884;12.064;2023-01-24T16:15:54;1.10;99.90
20566;DHT22;10441;50.884;12.064;2023-01-24T16:18:23;1.40;99.90
20566;DHT22;10441;50.884;12.064;2023-01-24T16:20:55;1.20;99.90
20566;DHT22;10441;50.884;12.064;2023-01-24T16:23:23;1.30;99.90
20566;DHT22;10441;50.884;12.064;2023-01-24T16:25:53;1.30;99.90
20566;DHT22;10441;50.884;12.064;2023-01-24T16:28:24;1.30;99.90